Time;durP1;ratioP1;P1;durP2;ratioP2;P2;SDS_P1;SDS_P2;PMS_P1;PMS_P2;Temp;Humidity;BMP_temperature;BMP_pressure;BME280_temperature;BME280_humidity;BME280_pressure;Samples;Min_cycle;Max_cycle;Signal;HPM_P1;HPM_P2
2022/10/04 00:00:55;;;;;;;;;;;;;;;;;;5033742;28;19925;-59
2022/10/04 00:03:21;;;;;;;;;;;;;;;;;;5033502;28;19931;-60
2022/10/04 00:05:47;;;;;;;;;;;;;;;;;;5051256;28;20496;-59
2022/10/04 00:08:13;;;;;;;;;;;;;;;;;;5051071;28;19921;-59
2022/10/04 00:10:39;;;;;;;;;;;;;;;;;;5051514;28;19921;-59
2022/10/04 00:13:05;;;;;;;;;;;;;;;;;;5050558;28;20285;-59
2022/10/04 00:15:31;;;;;;;;;;;;;;;;;;5051458;28;19971;-59
2022/10/04 00:17:57;;;;;;;;;;;;;;;;;;5051052;28;20012;-60
2022/10/04 00:20:23;;;;;;;;;;;;;;;;;;5051465;28;20532;-59
2022/10/04 00:22:49;;;;;;;;;;;;;;;;;;5033021;28;19921;-60
2022/10/04 00:25:16;;;;;;;;;;;;;;;;;;5050579;28;19921;-59
2022/10/04 00:27:42;;;;;;;;;;;;;;;;;;5050313;28;19928;-59
2022/10/04 00:30:08;;;;;;;;;;;;;;;;;;5050760;28;19920;-59
2022/10/04 00:32:34;;;;;;;;;;;;;;;;;;5050850;28;20400;-59
2022/10/04 00:35:00;;;;;;;;;;;;;;;;;;5050703;28;19970;-59
2022/10/04 00:37:26;;;;;;;;;;;;;;;;;;5050811;28;19921;-59
2022/10/04 00:39:52;;;;;;;;;;;;;;;;;;5051310;28;19931;-59
2022/10/04 00:42:18;;;;;;;;;;;;;;;;;;5049439;28;20523;-59
2022/10/04 00:44:44;;;;;;;;;;;;;;;;;;5050897;28;19992;-59
2022/10/04 00:47:10;;;;;;;;;;;;;;;;;;5050423;28;19925;-59
2022/10/04 00:49:38;;;;;;;;;;;;;;;;;;5050258;28;20363;-59
2022/10/04 00:52:04;;;;;;;;;;;;;;;;;;5050160;28;19960;-60
2022/10/04 00:54:30;;;;;;;;;;;;;;;;;;5049954;28;19967;-59
2022/10/04 00:56:56;;;;;;;;;;;;;;;;;;5050064;28;19931;-59
2022/10/04 00:59:22;;;;;;;;;;;;;;;;;;5050918;28;19924;-59
2022/10/04 01:01:48;;;;;;;;;;;;;;;;;;5050276;28;19921;-59
2022/10/04 01:04:14;;;;;;;;;;;;;;;;;;5031781;28;20332;-59
2022/10/04 01:06:40;;;;;;;;;;;;;;;;;;5032098;28;20293;-59
2022/10/04 01:09:06;;;;;;;;;;;;;;;;;;5050231;28;20011;-60
2022/10/04 01:11:32;;;;;;;;;;;;;;;;;;5049742;28;19978;-59
2022/10/04 01:13:58;;;;;;;;;;;;;;;;;;5049917;28;20015;-60
2022/10/04 01:16:24;;;;;;;;;;;;;;;;;;5050609;28;19921;-59
2022/10/04 01:18:50;;;;;;;;;;;;;;;;;;5048809;28;19921;-59
2022/10/04 01:21:16;;;;;;;;;;;;;;;;;;5049622;28;19921;-59
2022/10/04 01:23:42;;;;;;;;;;;;;;;;;;5050043;28;19927;-60
2022/10/04 01:26:08;;;;;;;;;;;;;;;;;;5049037;28;19921;-58
2022/10/04 01:28:34;;;;;;;;;;;;;;;;;;5031751;28;19921;-59
2022/10/04 01:31:00;;;;;;;;;;;;;;;;;;5049564;28;19921;-58
2022/10/04 01:33:26;;;;;;;;;;;;;;;;;;5049762;28;19940;-59
2022/10/04 01:35:52;;;;;;;;;;;;;;;;;;5050186;28;19962;-59
2022/10/04 01:38:18;;;;;;;;;;;;;;;;;;5049374;28;20007;-58
2022/10/04 01:40:44;;;;;;;;;;;;;;;;;;5049362;28;19927;-59
2022/10/04 01:43:10;;;;;;;;;;;;;;;;;;5048414;28;19926;-59
2022/10/04 01:45:36;;;;;;;;;;;;;;;;;;5031895;28;20340;-59
2022/10/04 01:48:02;;;;;;;;;;;;;;;;;;5049000;28;19966;-59
2022/10/04 01:50:28;;;;;;;;;;;;;;;;;;5049383;28;19920;-60
2022/10/04 01:52:54;;;;;;;;;;;;;;;;;;5041454;28;19970;-59
2022/10/04 01:55:20;;;;;;;;;;;;;;;;;;5049289;28;19944;-59
2022/10/04 01:57:47;;;;;;;;;;;;;;;;;;5048503;28;19928;-58
2022/10/04 02:00:13;;;;;;;;;;;;;;;;;;5049433;28;19921;-59
2022/10/04 02:02:39;;;;;;;;;;;;;;;;;;5030848;28;20011;-59
2022/10/04 02:05:05;;;;;;;;;;;;;;;;;;5048706;28;20007;-59
2022/10/04 02:07:31;;;;;;;;;;;;;;;;;;5049295;28;20344;-59
2022/10/04 02:09:58;;;;;;;;;;;;;;;;;;5048873;28;19978;-58
2022/10/04 02:12:24;;;;;;;;;;;;;;;;;;5048675;28;19921;-59
2022/10/04 02:14:52;;;;;;;;;;;;;;;;;;5049099;28;19956;-59
2022/10/04 02:17:18;;;;;;;;;;;;;;;;;;5048701;28;19927;-59
2022/10/04 02:19:44;;;;;;;;;;;;;;;;;;5048719;28;19920;-59
2022/10/04 02:22:10;;;;;;;;;;;;;;;;;;5048718;28;19921;-59
2022/10/04 02:24:36;;;;;;;;;;;;;;;;;;5048288;28;19932;-59
2022/10/04 02:27:02;;;;;;;;;;;;;;;;;;5048084;28;19921;-59
2022/10/04 02:29:28;;;;;;;;;;;;;;;;;;5048628;28;20435;-59
2022/10/04 02:34:39;;;;;;;;;;;;;;;;;;5048965;28;19928;-59
2022/10/04 02:37:05;;;;;;;;;;;;;;;;;;5048567;28;20374;-60
2022/10/04 02:39:31;;;;;;;;;;;;;;;;;;5048897;28;20289;-59
2022/10/04 02:41:57;;;;;;;;;;;;;;;;;;5028871;28;20381;-59
2022/10/04 02:44:24;;;;;;;;;;;;;;;;;;5049232;28;19920;-59
2022/10/04 02:46:51;;;;;;;;;;;;;;;;;;5049047;28;19920;-59
2022/10/04 02:49:17;;;;;;;;;;;;;;;;;;5030945;28;19924;-59
2022/10/04 02:51:43;;;;;;;;;;;;;;;;;;5048823;28;19967;-59
2022/10/04 02:54:09;;;;;;;;;;;;;;;;;;5048722;28;19970;-59
2022/10/04 02:56:35;;;;;;;;;;;;;;;;;;5047561;28;20345;-59
2022/10/04 02:59:01;;;;;;;;;;;;;;;;;;5048294;28;19943;-60
2022/10/04 03:01:27;;;;;;;;;;;;;;;;;;5030939;28;19928;-59
2022/10/04 03:03:53;;;;;;;;;;;;;;;;;;5049111;28;19924;-59
2022/10/04 03:06:19;;;;;;;;;;;;;;;;;;5048394;28;20054;-59
2022/10/04 03:08:45;;;;;;;;;;;;;;;;;;5030484;28;20277;-59
2022/10/04 03:11:11;;;;;;;;;;;;;;;;;;5047189;28;20035;-59
2022/10/04 03:13:37;;;;;;;;;;;;;;;;;;5048221;28;19921;-59
2022/10/04 03:16:03;;;;;;;;;;;;;;;;;;5048306;28;19967;-60
2022/10/04 03:18:30;;;;;;;;;;;;;;;;;;5048752;28;19975;-59
2022/10/04 03:20:56;;;;;;;;;;;;;;;;;;5048740;28;19920;-59
2022/10/04 03:23:22;;;;;;;;;;;;;;;;;;5048689;28;20015;-59
2022/10/04 03:25:48;;;;;;;;;;;;;;;;;;5047501;28;19920;-58
2022/10/04 03:28:14;;;;;;;;;;;;;;;;;;5048064;28;20398;-59
2022/10/04 03:30:41;;;;;;;;;;;;;;;;;;5048575;28;19920;-59
2022/10/04 03:33:07;;;;;;;;;;;;;;;;;;5048144;28;19920;-59
2022/10/04 03:35:33;;;;;;;;;;;;;;;;;;5048307;28;19966;-59
2022/10/04 03:38:01;;;;;;;;;;;;;;;;;;5047901;28;19921;-58
2022/10/04 03:40:27;;;;;;;;;;;;;;;;;;5048295;28;19927;-59
2022/10/04 03:42:53;;;;;;;;;;;;;;;;;;5050973;28;19920;-59
2022/10/04 03:45:19;;;;;;;;;;;;;;;;;;5051813;28;19921;-59
2022/10/04 03:47:47;;;;;;;;;;;;;;;;;;5051790;28;19925;-59
2022/10/04 03:50:13;;;;;;;;;;;;;;;;;;5051799;28;20277;-59
2022/10/04 03:52:39;;;;;;;;;;;;;;;;;;5051462;28;20381;-59
2022/10/04 03:55:05;;;;;;;;;;;;;;;;;;5033485;28;19928;-59
2022/10/04 03:57:31;;;;;;;;;;;;;;;;;;5050670;28;19933;-59
2022/10/04 03:59:57;;;;;;;;;;;;;;;;;;5051260;28;20332;-60
2022/10/04 04:02:23;;;;;;;;;;;;;;;;;;5051738;28;19960;-59
2022/10/04 04:04:49;;;;;;;;;;;;;;;;;;5051686;28;19995;-59
2022/10/04 04:07:15;;;;;;;;;;;;;;;;;;5050693;28;19963;-59
2022/10/04 04:09:41;;;;;;;;;;;;;;;;;;5051398;28;19916;-59
2022/10/04 04:12:07;;;;;;;;;;;;;;;;;;5049945;28;19982;-59
2022/10/04 04:14:33;;;;;;;;;;;;;;;;;;5051622;28;19921;-59
2022/10/04 04:16:59;;;;;;;;;;;;;;;;;;5051111;28;19924;-59
2022/10/04 04:19:25;;;;;;;;;;;;;;;;;;5051559;28;20349;-59
2022/10/04 04:21:51;;;;;;;;;;;;;;;;;;5051021;28;20003;-57
2022/10/04 04:24:17;;;;;;;;;;;;;;;;;;5050565;28;19925;-59
2022/10/04 04:26:43;;;;;;;;;;;;;;;;;;5050441;28;19928;-60
2022/10/04 04:29:09;;;;;;;;;;;;;;;;;;5050585;28;19924;-59
2022/10/04 04:31:35;;;;;;;;;;;;;;;;;;5050934;28;20079;-59
2022/10/04 04:34:01;;;;;;;;;;;;;;;;;;5050798;28;19979;-59
2022/10/04 04:36:27;;;;;;;;;;;;;;;;;;5050500;28;20040;-60
2022/10/04 04:41:39;;;;;;;;;;;;;;;;;;5049997;28;20404;-59
2022/10/04 04:44:05;;;;;;;;;;;;;;;;;;5050114;28;19921;-59
2022/10/04 04:46:31;;;;;;;;;;;;;;;;;;5050484;28;20391;-60
2022/10/04 04:49:00;;;;;;;;;;;;;;;;;;5050402;28;20000;-60
2022/10/04 04:51:26;;;;;;;;;;;;;;;;;;5050654;28;19940;-59
2022/10/04 04:53:52;;;;;;;;;;;;;;;;;;5049621;28;19924;-59
2022/10/04 04:56:20;;;;;;;;;;;;;;;;;;5049772;28;20289;-59
2022/10/04 04:58:46;;;;;;;;;;;;;;;;;;5050563;28;19943;-59
2022/10/04 05:01:12;;;;;;;;;;;;;;;;;;5049992;28;20373;-60
2022/10/04 05:03:38;;;;;;;;;;;;;;;;;;5050306;28;19916;-60
2022/10/04 05:06:06;;;;;;;;;;;;;;;;;;5050577;28;19967;-59
2022/10/04 05:08:32;;;;;;;;;;;;;;;;;;5050522;28;20416;-60
2022/10/04 05:10:58;;;;;;;;;;;;;;;;;;5049214;28;20058;-60
2022/10/04 05:13:24;;;;;;;;;;;;;;;;;;5050846;28;20297;-60
2022/10/04 05:15:50;;;;;;;;;;;;;;;;;;5049752;28;19923;-59
2022/10/04 05:18:16;;;;;;;;;;;;;;;;;;5050180;28;20932;-60
2022/10/04 05:20:42;;;;;;;;;;;;;;;;;;5049683;28;20374;-60
2022/10/04 05:23:08;;;;;;;;;;;;;;;;;;5050050;28;19974;-59
2022/10/04 05:25:34;;;;;;;;;;;;;;;;;;5043116;28;19970;-60
2022/10/04 05:28:00;;;;;;;;;;;;;;;;;;5036745;28;20398;-59
2022/10/04 05:30:27;;;;;;;;;;;;;;;;;;5036600;28;19928;-59
2022/10/04 05:32:53;;;;;;;;;;;;;;;;;;5034088;28;19925;-59
2022/10/04 05:35:19;;;;;;;;;;;;;;;;;;5032468;28;19921;-59
2022/10/04 05:37:45;;;;;;;;;;;;;;;;;;5038198;28;19972;-58
2022/10/04 05:40:11;;;;;;;;;;;;;;;;;;5033646;28;20065;-61
2022/10/04 05:42:37;;;;;;;;;;;;;;;;;;5043864;28;19928;-58
2022/10/04 05:45:03;;;;;;;;;;;;;;;;;;5048293;28;19927;-58
2022/10/04 05:47:29;;;;;;;;;;;;;;;;;;5046870;28;19956;-59
2022/10/04 05:49:56;;;;;;;;;;;;;;;;;;5047295;28;20011;-58
2022/10/04 05:52:22;;;;;;;;;;;;;;;;;;5029199;28;20074;-59
2022/10/04 05:54:50;;;;;;;;;;;;;;;;;;5048550;28;20023;-58
2022/10/04 05:57:16;;;;;;;;;;;;;;;;;;5040916;28;19927;-59
2022/10/04 05:59:42;;;;;;;;;;;;;;;;;;5033685;28;19971;-59
2022/10/04 06:02:08;;;;;;;;;;;;;;;;;;5032365;28;19964;-59
2022/10/04 06:04:34;;;;;;;;;;;;;;;;;;5041187;28;20000;-59
2022/10/04 06:07:01;;;;;;;;;;;;;;;;;;5048034;28;19925;-60
2022/10/04 06:09:27;;;;;;;;;;;;;;;;;;5047915;28;19928;-60
2022/10/04 06:11:54;;;;;;;;;;;;;;;;;;5043168;28;19929;-58
2022/10/04 06:14:20;;;;;;;;;;;;;;;;;;5047609;28;19964;-59
2022/10/04 06:16:46;;;;;;;;;;;;;;;;;;5047921;28;20365;-58
2022/10/04 06:19:12;;;;;;;;;;;;;;;;;;5047086;28;19925;-58
2022/10/04 06:21:38;;;;;;;;;;;;;;;;;;5047843;28;19928;-59
2022/10/04 06:24:04;;;;;;;;;;;;;;;;;;5047328;28;19921;-58
2022/10/04 06:26:30;;;;;;;;;;;;;;;;;;5047000;28;19967;-60
2022/10/04 06:28:56;;;;;;;;;;;;;;;;;;5048074;28;19928;-59
2022/10/04 06:31:23;;;;;;;;;;;;;;;;;;5047885;28;19927;-58
2022/10/04 06:33:49;;;;;;;;;;;;;;;;;;5043838;28;19920;-58
2022/10/04 06:36:16;;;;;;;;;;;;;;;;;;5047343;28;19920;-59
2022/10/04 06:38:43;;;;;;;;;;;;;;;;;;5047642;28;19971;-58
2022/10/04 06:41:09;;;;;;;;;;;;;;;;;;5046430;28;19963;-58
2022/10/04 06:43:35;;;;;;;;;;;;;;;;;;5046992;28;20049;-58
2022/10/04 06:46:01;;;;;;;;;;;;;;;;;;5047195;28;20345;-60
2022/10/04 06:48:27;;;;;;;;;;;;;;;;;;5047734;28;19935;-59
2022/10/04 06:50:53;;;;;;;;;;;;;;;;;;5048199;28;19928;-58
2022/10/04 06:53:19;;;;;;;;;;;;;;;;;;5047131;28;19920;-58
2022/10/04 06:55:45;;;;;;;;;;;;;;;;;;5046482;28;19920;-59
2022/10/04 06:58:11;;;;;;;;;;;;;;;;;;5046639;28;20328;-59
2022/10/04 07:00:38;;;;;;;;;;;;;;;;;;5047016;28;20389;-57
2022/10/04 07:03:04;;;;;;;;;;;;;;;;;;5047353;28;20368;-59
2022/10/04 07:05:30;;;;;;;;;;;;;;;;;;5047391;28;20366;-59
2022/10/04 07:08:05;;;;;;;;;;;;;;;;;;5047926;28;20042;-59
2022/10/04 07:10:31;;;;;;;;;;;;;;;;;;5043483;28;20438;-58
2022/10/04 07:12:57;;;;;;;;;;;;;;;;;;5047245;28;20015;-60
2022/10/04 07:15:23;;;;;;;;;;;;;;;;;;5047661;28;19938;-59
2022/10/04 07:17:49;;;;;;;;;;;;;;;;;;5050855;28;19920;-58
2022/10/04 07:20:15;;;;;;;;;;;;;;;;;;5051174;28;20011;-58
2022/10/04 07:22:41;;;;;;;;;;;;;;;;;;5051118;28;20928;-58
2022/10/04 07:25:07;;;;;;;;;;;;;;;;;;5050237;28;19921;-58
2022/10/04 07:27:33;;;;;;;;;;;;;;;;;;5051002;28;19926;-58
2022/10/04 07:29:59;;;;;;;;;;;;;;;;;;5050790;28;19923;-58
2022/10/04 07:32:25;;;;;;;;;;;;;;;;;;5051371;28;19963;-58
2022/10/04 07:34:51;;;;;;;;;;;;;;;;;;5050813;28;19916;-58
2022/10/04 07:37:17;;;;;;;;;;;;;;;;;;5050718;28;19925;-58
2022/10/04 07:39:43;;;;;;;;;;;;;;;;;;5050819;28;19924;-58
2022/10/04 07:42:09;;;;;;;;;;;;;;;;;;5049303;28;19912;-59
2022/10/04 07:44:35;;;;;;;;;;;;;;;;;;5050654;28;19973;-59
2022/10/04 07:47:02;;;;;;;;;;;;;;;;;;5050964;28;20397;-58
2022/10/04 07:49:28;;;;;;;;;;;;;;;;;;5050587;28;20075;-58
2022/10/04 07:51:54;;;;;;;;;;;;;;;;;;5050882;28;19929;-58
2022/10/04 07:54:20;;;;;;;;;;;;;;;;;;5050188;28;19923;-58
2022/10/04 07:56:46;;;;;;;;;;;;;;;;;;5049585;28;20021;-59
2022/10/04 07:59:12;;;;;;;;;;;;;;;;;;5050029;28;19979;-58
2022/10/04 08:01:38;;;;;;;;;;;;;;;;;;5050481;28;20366;-58
2022/10/04 08:04:04;;;;;;;;;;;;;;;;;;5050213;28;19935;-59
2022/10/04 08:06:30;;;;;;;;;;;;;;;;;;5050676;28;19935;-59
2022/10/04 08:08:57;;;;;;;;;;;;;;;;;;5032808;28;19921;-58
2022/10/04 08:11:23;;;;;;;;;;;;;;;;;;5049653;28;19977;-58
2022/10/04 08:13:49;;;;;;;;;;;;;;;;;;5049658;28;19934;-59
2022/10/04 08:16:15;;;;;;;;;;;;;;;;;;5050024;28;20380;-59
2022/10/04 08:18:42;;;;;;;;;;;;;;;;;;5050056;28;19943;-59
2022/10/04 08:21:08;;;;;;;;;;;;;;;;;;5049887;28;19924;-58
2022/10/04 08:23:34;;;;;;;;;;;;;;;;;;5050170;28;19920;-58
2022/10/04 08:26:00;;;;;;;;;;;;;;;;;;5048804;28;19962;-59
2022/10/04 08:31:10;;;;;;;;;;;;;;;;;;5049449;28;19967;-58
2022/10/04 08:33:37;;;;;;;;;;;;;;;;;;5049799;28;19925;-58
2022/10/04 08:36:02;;;;;;;;;;;;;;;;;;5049316;28;19916;-58
2022/10/04 08:38:28;;;;;;;;;;;;;;;;;;5050081;28;20324;-59
2022/10/04 08:40:55;;;;;;;;;;;;;;;;;;5048877;28;20003;-58
2022/10/04 08:43:21;;;;;;;;;;;;;;;;;;5031066;28;19998;-59
2022/10/04 08:45:47;;;;;;;;;;;;;;;;;;5049971;28;19935;-59
2022/10/04 08:48:17;;;;;;;;;;;;;;;;;;5049241;28;19921;-59
2022/10/04 08:50:43;;;;;;;;;;;;;;;;;;5049881;28;19978;-59
2022/10/04 08:53:09;;;;;;;;;;;;;;;;;;5048964;28;19917;-58
2022/10/04 08:55:36;;;;;;;;;;;;;;;;;;5048822;28;19966;-59
2022/10/04 08:58:02;;;;;;;;;;;;;;;;;;5049375;28;19921;-58
2022/10/04 09:00:28;;;;;;;;;;;;;;;;;;5049460;28;19943;-58
2022/10/04 09:02:54;;;;;;;;;;;;;;;;;;5049619;28;20270;-58
2022/10/04 09:05:20;;;;;;;;;;;;;;;;;;5030916;28;20421;-58
2022/10/04 09:07:47;;;;;;;;;;;;;;;;;;5048937;28;19932;-58
2022/10/04 09:10:13;;;;;;;;;;;;;;;;;;5048357;28;19964;-59
2022/10/04 09:12:40;;;;;;;;;;;;;;;;;;5049123;28;19925;-58
2022/10/04 09:15:06;;;;;;;;;;;;;;;;;;5049234;28;19928;-57
2022/10/04 09:17:32;;;;;;;;;;;;;;;;;;5049148;28;19921;-59
2022/10/04 09:19:58;;;;;;;;;;;;;;;;;;5049291;28;20271;-60
2022/10/04 09:22:25;;;;;;;;;;;;;;;;;;5049195;28;19982;-58
2022/10/04 09:24:51;;;;;;;;;;;;;;;;;;5048377;28;19932;-59
2022/10/04 09:27:18;;;;;;;;;;;;;;;;;;5048554;28;20036;-58
2022/10/04 09:29:44;;;;;;;;;;;;;;;;;;5048994;28;19943;-59
2022/10/04 09:32:10;;;;;;;;;;;;;;;;;;5030544;28;19920;-58
2022/10/04 09:34:37;;;;;;;;;;;;;;;;;;5048973;28;19966;-58
2022/10/04 09:37:03;;;;;;;;;;;;;;;;;;5048150;28;20378;-59
2022/10/04 09:39:29;;;;;;;;;;;;;;;;;;5048114;28;19987;-58
2022/10/04 09:41:55;;;;;;;;;;;;;;;;;;5047960;28;19921;-58
2022/10/04 09:44:21;;;;;;;;;;;;;;;;;;5047569;28;20385;-59
2022/10/04 09:46:47;;;;;;;;;;;;;;;;;;5048749;28;19924;-59
2022/10/04 09:49:13;;;;;;;;;;;;;;;;;;5048275;28;19967;-59
2022/10/04 09:51:40;;;;;;;;;;;;;;;;;;5048021;28;19921;-58
2022/10/04 09:54:06;;;;;;;;;;;;;;;;;;5048433;28;19925;-59
2022/10/04 09:56:32;;;;;;;;;;;;;;;;;;5047722;28;19928;-58
2022/10/04 09:58:59;;;;;;;;;;;;;;;;;;5047997;28;19943;-58
2022/10/04 10:01:28;;;;;;;;;;;;;;;;;;5048382;28;20358;-58
2022/10/04 10:03:54;;;;;;;;;;;;;;;;;;5048644;28;19974;-58
2022/10/04 10:06:20;;;;;;;;;;;;;;;;;;5047855;28;19924;-59
2022/10/04 10:08:46;;;;;;;;;;;;;;;;;;5047839;28;20502;-59
2022/10/04 10:13:57;;;;;;;;;;;;;;;;;;5048091;28;19921;-60
2022/10/04 10:16:24;;;;;;;;;;;;;;;;;;5048266;28;19920;-59
2022/10/04 10:18:50;;;;;;;;;;;;;;;;;;5047997;28;19921;-58
2022/10/04 10:21:16;;;;;;;;;;;;;;;;;;5044351;28;19945;-58
2022/10/04 10:23:44;;;;;;;;;;;;;;;;;;5047960;28;19979;-59
2022/10/04 10:26:10;;;;;;;;;;;;;;;;;;5046970;28;19921;-58
2022/10/04 10:28:36;;;;;;;;;;;;;;;;;;5047968;28;19916;-58
2022/10/04 10:31:04;;;;;;;;;;;;;;;;;;5044420;28;20062;-59
2022/10/04 10:33:31;;;;;;;;;;;;;;;;;;5047757;28;19966;-58
2022/10/04 10:35:57;;;;;;;;;;;;;;;;;;5047614;28;19923;-60
2022/10/04 10:38:23;;;;;;;;;;;;;;;;;;5048136;28;19925;-58
2022/10/04 10:40:49;;;;;;;;;;;;;;;;;;5043424;28;19928;-58
2022/10/04 10:43:17;;;;;;;;;;;;;;;;;;5046889;28;19934;-59
2022/10/04 10:45:44;;;;;;;;;;;;;;;;;;5047568;28;19920;-58
2022/10/04 10:48:10;;;;;;;;;;;;;;;;;;5047552;28;19983;-58
2022/10/04 10:50:57;;;;;;;;;;;;;;;;;;5046456;28;20117;-59
2022/10/04 10:53:22;;;;;;;;;;;;;;;;;;5051832;28;19921;-58
2022/10/04 10:55:48;;;;;;;;;;;;;;;;;;5046717;28;19927;-59
2022/10/04 10:58:14;;;;;;;;;;;;;;;;;;5048567;28;19940;-58
2022/10/04 11:00:40;;;;;;;;;;;;;;;;;;5047468;28;19928;-57
2022/10/04 11:03:06;;;;;;;;;;;;;;;;;;5048808;28;20269;-58
2022/10/04 11:05:32;;;;;;;;;;;;;;;;;;5030791;28;19921;-59
2022/10/04 11:07:58;;;;;;;;;;;;;;;;;;5048110;28;19927;-59
2022/10/04 11:10:26;;;;;;;;;;;;;;;;;;5047334;28;19920;-58
2022/10/04 11:12:52;;;;;;;;;;;;;;;;;;5049540;28;19921;-59
2022/10/04 11:15:20;;;;;;;;;;;;;;;;;;5047354;28;19943;-58
2022/10/04 11:17:46;;;;;;;;;;;;;;;;;;5050916;28;19944;-58
2022/10/04 11:20:12;;;;;;;;;;;;;;;;;;5050511;28;20290;-60
2022/10/04 11:22:43;;;;;;;;;;;;;;;;;;5050386;28;19970;-61
2022/10/04 11:25:10;;;;;;;;;;;;;;;;;;5027048;28;19920;-61
2022/10/04 11:27:36;;;;;;;;;;;;;;;;;;5050561;28;19916;-61
2022/10/04 11:30:02;;;;;;;;;;;;;;;;;;5050483;28;19928;-61
2022/10/04 11:32:29;;;;;;;;;;;;;;;;;;5032595;28;20093;-61
2022/10/04 11:34:58;;;;;;;;;;;;;;;;;;5051380;28;19924;-61
2022/10/04 11:37:25;;;;;;;;;;;;;;;;;;5050996;28;20605;-61
2022/10/04 11:39:51;;;;;;;;;;;;;;;;;;5049403;28;20579;-61
2022/10/04 11:42:17;;;;;;;;;;;;;;;;;;5030650;28;20466;-61
2022/10/04 11:44:43;;;;;;;;;;;;;;;;;;5050940;28;20378;-61
2022/10/04 11:47:09;;;;;;;;;;;;;;;;;;5050514;28;19924;-61
2022/10/04 11:49:35;;;;;;;;;;;;;;;;;;5050459;28;19921;-60
2022/10/04 11:52:03;;;;;;;;;;;;;;;;;;5050487;28;19952;-61
2022/10/04 11:54:29;;;;;;;;;;;;;;;;;;5049815;28;19931;-61
2022/10/04 11:56:55;;;;;;;;;;;;;;;;;;5032874;28;19928;-61
2022/10/04 11:59:21;;;;;;;;;;;;;;;;;;5050148;28;19920;-61
2022/10/04 12:01:47;;;;;;;;;;;;;;;;;;5049455;28;19925;-61
2022/10/04 12:04:13;;;;;;;;;;;;;;;;;;5049872;28;20113;-61
2022/10/04 12:06:39;;;;;;;;;;;;;;;;;;5050325;28;19936;-61
2022/10/04 12:09:05;;;;;;;;;;;;;;;;;;5049652;28;19927;-60
2022/10/04 12:12:35;;;;;;;;;;;;;;;;;;5049419;28;19921;-62
2022/10/04 12:14:20;;;;;;;;;;;;;;;;;;5048880;28;19925;-61
2022/10/04 12:16:46;;;;;;;;;;;;;;;;;;5050092;28;19924;-61
2022/10/04 12:19:14;;;;;;;;;;;;;;;;;;5044908;28;19921;-61
2022/10/04 12:21:40;;;;;;;;;;;;;;;;;;5048636;28;19928;-61
2022/10/04 12:24:06;;;;;;;;;;;;;;;;;;4162687;22;21776;-60
2022/10/04 12:26:32;;;;;;;;;;;;;;;;;;5044779;28;19928;-59
2022/10/04 12:28:58;;;;;;;;;;;;;;;;;;5048479;28;19921;-59
2022/10/04 12:31:25;;;;;;;;;;;;;;;;;;5030649;28;19935;-59
2022/10/04 12:33:53;;;;;;;;;;;;;;;;;;5049048;28;19925;-59
2022/10/04 12:36:19;;;;;;;;;;;;;;;;;;5030645;28;20471;-59
2022/10/04 12:38:45;;;;;;;;;;;;;;;;;;5046229;28;19966;-59
2022/10/04 12:41:12;;;;;;;;;;;;;;;;;;5048687;28;20404;-59
2022/10/04 12:43:39;;;;;;;;;;;;;;;;;;5049778;28;19921;-56
2022/10/04 12:46:05;;;;;;;;;;;;;;;;;;5049390;28;19925;-57
2022/10/04 12:48:31;;;;;;;;;;;;;;;;;;5049335;28;19925;-57
2022/10/04 12:50:59;;;;;;;;;;;;;;;;;;5048843;28;20441;-58
2022/10/04 12:53:30;;;;;;;;;;;;;;;;;;5047060;28;20350;-57
2022/10/04 12:55:56;;;;;;;;;;;;;;;;;;5047991;28;19929;-58
2022/10/04 12:58:22;;;;;;;;;;;;;;;;;;5048676;28;19920;-57
2022/10/04 13:00:48;;;;;;;;;;;;;;;;;;5048759;28;20400;-57
2022/10/04 13:03:14;;;;;;;;;;;;;;;;;;5048880;28;19925;-58
2022/10/04 13:05:41;;;;;;;;;;;;;;;;;;5049255;28;20058;-57
2022/10/04 13:08:07;;;;;;;;;;;;;;;;;;5041084;28;20007;-56
2022/10/04 13:10:33;;;;;;;;;;;;;;;;;;5042309;28;19971;-57
2022/10/04 13:12:59;;;;;;;;;;;;;;;;;;5031050;28;19920;-58
2022/10/04 13:15:26;;;;;;;;;;;;;;;;;;5036661;28;20388;-57
2022/10/04 13:17:52;;;;;;;;;;;;;;;;;;5033084;28;20091;-56
2022/10/04 13:20:18;;;;;;;;;;;;;;;;;;5031759;28;20279;-56
2022/10/04 13:22:44;;;;;;;;;;;;;;;;;;5037049;28;20402;-56
2022/10/04 13:25:11;;;;;;;;;;;;;;;;;;5030362;28;20342;-57
2022/10/04 13:27:37;;;;;;;;;;;;;;;;;;5033012;28;19925;-58
2022/10/04 13:30:03;;;;;;;;;;;;;;;;;;5036673;28;19936;-58
2022/10/04 13:32:29;;;;;;;;;;;;;;;;;;5048645;28;19920;-57
2022/10/04 13:34:55;;;;;;;;;;;;;;;;;;5048333;28;19924;-57
2022/10/04 13:37:21;;;;;;;;;;;;;;;;;;5048185;28;19916;-57
2022/10/04 13:39:47;;;;;;;;;;;;;;;;;;5047571;28;20819;-57
2022/10/04 13:42:14;;;;;;;;;;;;;;;;;;5048281;28;19921;-56
2022/10/04 13:44:40;;;;;;;;;;;;;;;;;;5048777;28;20372;-56
2022/10/04 13:47:06;;;;;;;;;;;;;;;;;;5030904;28;20015;-57
2022/10/04 13:49:33;;;;;;;;;;;;;;;;;;5048173;28;19972;-56
2022/10/04 13:57:28;;;;;;;;;;;;;;;;;;5047323;28;19925;-56
2022/10/04 13:59:55;;;;;;;;;;;;;;;;;;5047998;28;20259;-57
2022/10/04 14:02:21;;;;;;;;;;;;;;;;;;5048499;28;19920;-56
2022/10/04 14:04:47;;;;;;;;;;;;;;;;;;5048007;28;19927;-57
2022/10/04 14:07:13;;;;;;;;;;;;;;;;;;5048053;28;19942;-58
2022/10/04 14:09:39;;;;;;;;;;;;;;;;;;5047919;28;19921;-57
2022/10/04 14:12:05;;;;;;;;;;;;;;;;;;5047979;28;19920;-57
2022/10/04 14:14:32;;;;;;;;;;;;;;;;;;5047878;28;19920;-57
2022/10/04 14:16:58;;;;;;;;;;;;;;;;;;5047907;28;20641;-58
2022/10/04 14:19:24;;;;;;;;;;;;;;;;;;5047839;28;20365;-57
2022/10/04 14:21:50;;;;;;;;;;;;;;;;;;5044263;28;19920;-56
2022/10/04 14:24:16;;;;;;;;;;;;;;;;;;5028529;28;19931;-57
2022/10/04 14:26:42;;;;;;;;;;;;;;;;;;5047861;28;19927;-58
2022/10/04 14:29:08;;;;;;;;;;;;;;;;;;5047681;28;20003;-57
2022/10/04 14:31:34;;;;;;;;;;;;;;;;;;5048419;28;19921;-57
2022/10/04 14:34:00;;;;;;;;;;;;;;;;;;5048602;28;20158;-58
2022/10/04 14:36:26;;;;;;;;;;;;;;;;;;5048650;28;20321;-57
2022/10/04 14:38:52;;;;;;;;;;;;;;;;;;5047311;28;20015;-57
2022/10/04 14:41:18;;;;;;;;;;;;;;;;;;5048636;28;20067;-57
2022/10/04 14:43:44;;;;;;;;;;;;;;;;;;5048272;28;20011;-58
2022/10/04 14:46:10;;;;;;;;;;;;;;;;;;5030303;28;19999;-56
2022/10/04 14:48:36;;;;;;;;;;;;;;;;;;5048138;28;20004;-56
2022/10/04 14:51:02;;;;;;;;;;;;;;;;;;5048013;28;19920;-58
2022/10/04 14:53:28;;;;;;;;;;;;;;;;;;5047761;28;19921;-56
2022/10/04 14:55:54;;;;;;;;;;;;;;;;;;5047207;28;19946;-57
2022/10/04 14:58:21;;;;;;;;;;;;;;;;;;5048008;28;19927;-57
2022/10/04 15:00:47;;;;;;;;;;;;;;;;;;5048072;28;19920;-57
2022/10/04 15:03:13;;;;;;;;;;;;;;;;;;5048116;28;19928;-57
2022/10/04 15:05:39;;;;;;;;;;;;;;;;;;5048463;28;19928;-55
2022/10/04 15:08:05;;;;;;;;;;;;;;;;;;5047361;28;19920;-58
2022/10/04 15:10:31;;;;;;;;;;;;;;;;;;5047017;28;20298;-56
2022/10/04 15:12:57;;;;;;;;;;;;;;;;;;5029745;28;20303;-57
2022/10/04 15:15:23;;;;;;;;;;;;;;;;;;5048049;28;19940;-56
2022/10/04 15:17:49;;;;;;;;;;;;;;;;;;5047838;28;19925;-56
2022/10/04 15:20:18;;;;;;;;;;;;;;;;;;5048031;28;19939;-55
2022/10/04 15:22:44;;;;;;;;;;;;;;;;;;5047550;28;19958;-58
2022/10/04 15:25:10;;;;;;;;;;;;;;;;;;5046681;28;19920;-56
2022/10/04 15:27:37;;;;;;;;;;;;;;;;;;5047862;28;20366;-56
2022/10/04 15:30:03;;;;;;;;;;;;;;;;;;5047340;28;19935;-57
2022/10/04 15:32:29;;;;;;;;;;;;;;;;;;5047770;28;19920;-57
2022/10/04 15:34:55;;;;;;;;;;;;;;;;;;5047164;28;19927;-56
2022/10/04 15:37:24;;;;;;;;;;;;;;;;;;5048520;28;20649;-56
2022/10/04 15:39:50;;;;;;;;;;;;;;;;;;5050374;28;20509;-56
2022/10/04 15:42:16;;;;;;;;;;;;;;;;;;5050407;28;19928;-58
2022/10/04 15:44:42;;;;;;;;;;;;;;;;;;5043123;28;19921;-56
2022/10/04 15:47:08;;;;;;;;;;;;;;;;;;5044896;28;19989;-57
2022/10/04 15:49:35;;;;;;;;;;;;;;;;;;5050695;28;19973;-57
2022/10/04 15:52:02;;;;;;;;;;;;;;;;;;5050740;28;19921;-57
2022/10/04 15:54:28;;;;;;;;;;;;;;;;;;5049553;28;19921;-56
2022/10/04 15:56:54;;;;;;;;;;;;;;;;;;5032964;28;19928;-57
2022/10/04 15:59:20;;;;;;;;;;;;;;;;;;5032916;28;19928;-56
2022/10/04 16:01:46;;;;;;;;;;;;;;;;;;5050839;28;19921;-57
2022/10/04 16:04:12;;;;;;;;;;;;;;;;;;5050392;28;20294;-56
2022/10/04 16:06:39;;;;;;;;;;;;;;;;;;5049758;28;19920;-56
2022/10/04 16:09:05;;;;;;;;;;;;;;;;;;5049225;28;20365;-56
2022/10/04 16:11:31;;;;;;;;;;;;;;;;;;5049973;28;20409;-56
2022/10/04 16:13:57;;;;;;;;;;;;;;;;;;5032462;28;19927;-56
2022/10/04 16:16:24;;;;;;;;;;;;;;;;;;5050862;28;19968;-57
2022/10/04 16:18:51;;;;;;;;;;;;;;;;;;5049912;28;19928;-58
2022/10/04 16:21:17;;;;;;;;;;;;;;;;;;5049943;28;19928;-57
2022/10/04 16:23:44;;;;;;;;;;;;;;;;;;5050448;28;19944;-56
2022/10/04 16:26:10;;;;;;;;;;;;;;;;;;5049644;28;19921;-56
2022/10/04 16:28:36;;;;;;;;;;;;;;;;;;5032760;28;19925;-57
2022/10/04 16:31:02;;;;;;;;;;;;;;;;;;5050090;28;19974;-57
2022/10/04 16:33:30;;;;;;;;;;;;;;;;;;5049713;28;19952;-58
2022/10/04 16:35:57;;;;;;;;;;;;;;;;;;5049634;28;20358;-58
2022/10/04 16:38:23;;;;;;;;;;;;;;;;;;5050247;28;19921;-58
2022/10/04 16:40:49;;;;;;;;;;;;;;;;;;5047321;28;20452;-58
2022/10/04 16:43:15;;;;;;;;;;;;;;;;;;5047903;28;20384;-58
2022/10/04 16:45:42;;;;;;;;;;;;;;;;;;5047790;28;19924;-57
2022/10/04 16:48:08;;;;;;;;;;;;;;;;;;5047211;28;20642;-58
2022/10/04 16:50:34;;;;;;;;;;;;;;;;;;5047354;28;19920;-57
2022/10/04 16:53:00;;;;;;;;;;;;;;;;;;5047278;28;19928;-58
2022/10/04 16:55:26;;;;;;;;;;;;;;;;;;5046924;28;19917;-58